createdAt,value
2023-01-31T00:00:08.734Z,3.92
2023-01-31T00:02:10.219Z,3.91
2023-01-31T00:04:12.636Z,3.89
2023-01-31T00:06:21.228Z,3.86
2023-01-31T00:08:22.673Z,3.82
2023-01-31T00:10:24.122Z,3.84
2023-01-31T00:12:25.590Z,3.82
2023-01-31T00:14:27.041Z,3.81
2023-01-31T00:16:28.614Z,3.77
2023-01-31T00:18:30.844Z,3.74
2023-01-31T00:20:32.320Z,3.72
2023-01-31T00:22:33.848Z,3.69
2023-01-31T00:24:35.306Z,3.66
2023-01-31T00:26:37.560Z,3.61
2023-01-31T00:28:40.342Z,3.61
2023-01-31T00:30:41.769Z,3.61
2023-01-31T00:32:43.261Z,3.58
2023-01-31T00:34:44.865Z,3.56
2023-01-31T00:36:46.355Z,3.55
2023-01-31T00:38:56.597Z,3.56
2023-01-31T00:40:58.110Z,3.54
2023-01-31T00:42:59.609Z,3.55
2023-01-31T00:45:01.079Z,3.57
2023-01-31T00:47:02.745Z,3.60
2023-01-31T00:49:04.620Z,3.63
2023-01-31T00:51:06.478Z,3.63
2023-01-31T00:53:08.000Z,3.65
2023-01-31T00:55:09.610Z,3.65
2023-01-31T00:57:11.105Z,3.64
2023-01-31T00:59:12.706Z,3.67
2023-01-31T01:01:23.501Z,3.74
2023-01-31T01:03:25.017Z,3.76
2023-01-31T01:05:26.463Z,3.78
2023-01-31T01:07:27.913Z,3.82
2023-01-31T01:09:29.535Z,3.83
2023-01-31T01:11:32.641Z,3.85
2023-01-31T01:13:34.829Z,3.88
2023-01-31T01:15:39.692Z,3.91
2023-01-31T01:17:41.312Z,3.96
2023-01-31T01:19:42.809Z,4.00
2023-01-31T01:21:44.659Z,4.04
2023-01-31T01:23:49.830Z,4.06
2023-01-31T01:25:51.285Z,4.07
2023-01-31T01:27:52.714Z,4.09
2023-01-31T01:29:54.188Z,4.12
2023-01-31T01:31:55.727Z,4.15
2023-01-31T01:34:02.897Z,4.16
2023-01-31T01:36:06.659Z,4.13
2023-01-31T01:38:08.134Z,4.15
2023-01-31T01:40:10.158Z,4.15
2023-01-31T01:42:18.279Z,4.13
2023-01-31T01:44:41.586Z,4.07
2023-01-31T01:46:45.956Z,4.04
2023-01-31T01:48:51.290Z,4.02
2023-01-31T01:50:53.327Z,4.00
2023-01-31T01:53:08.398Z,3.96
2023-01-31T01:55:16.658Z,3.92
2023-01-31T01:57:23.088Z,3.86
2023-01-31T01:59:47.695Z,3.85
2023-01-31T02:01:50.631Z,3.82
2023-01-31T02:03:53.132Z,3.79
2023-01-31T02:05:58.693Z,3.81
2023-01-31T02:08:02.125Z,3.79
2023-01-31T02:10:19.567Z,3.81
2023-01-31T02:12:21.531Z,3.80
2023-01-31T02:14:23.239Z,3.81
2023-01-31T02:16:24.762Z,3.82
2023-01-31T02:18:27.934Z,3.81
2023-01-31T02:20:38.548Z,3.83
2023-01-31T02:22:54.169Z,3.84
2023-01-31T02:25:32.548Z,3.85
2023-01-31T02:27:58.601Z,3.85
2023-01-31T02:30:05.808Z,3.87
2023-01-31T02:32:13.347Z,3.86
2023-01-31T02:34:44.681Z,3.86
2023-01-31T02:37:01.899Z,3.85
2023-01-31T02:39:15.581Z,3.84
2023-01-31T02:41:38.774Z,3.85
2023-01-31T02:44:16.073Z,3.85
2023-01-31T02:46:18.687Z,3.81
2023-01-31T02:48:57.915Z,3.83
2023-01-31T02:51:15.390Z,3.83
2023-01-31T02:54:12.127Z,3.83
2023-01-31T02:56:28.893Z,3.81
2023-01-31T02:58:34.489Z,3.81
2023-01-31T03:00:38.662Z,3.79
2023-01-31T03:02:40.294Z,3.81
2023-01-31T03:04:43.051Z,3.82
2023-01-31T03:06:59.682Z,3.83
2023-01-31T03:09:25.727Z,3.84
2023-01-31T03:11:53.354Z,3.88
2023-01-31T03:14:12.535Z,3.87
2023-01-31T03:16:35.417Z,3.88
2023-01-31T03:18:52.283Z,3.90
2023-01-31T03:21:03.808Z,3.90
2023-01-31T03:23:10.959Z,3.90
2023-01-31T03:25:15.118Z,3.90
2023-01-31T03:27:17.681Z,3.89
2023-01-31T03:29:20.033Z,3.87
2023-01-31T03:31:32.833Z,3.85
2023-01-31T03:33:42.257Z,3.83
2023-01-31T03:35:51.679Z,3.82
2023-01-31T03:38:06.064Z,3.81
2023-01-31T03:40:23.633Z,3.79
2023-01-31T03:42:40.061Z,3.79
2023-01-31T03:44:41.459Z,3.75
2023-01-31T03:46:59.448Z,3.73
2023-01-31T03:49:04.193Z,3.69
2023-01-31T03:51:09.624Z,3.67
2023-01-31T03:53:16.021Z,3.62
2023-01-31T03:55:24.495Z,3.58
2023-01-31T03:57:34.427Z,3.55
2023-01-31T03:59:40.071Z,3.49
2023-01-31T04:01:50.624Z,3.46
2023-01-31T04:03:56.445Z,3.44
2023-01-31T04:05:58.007Z,3.42
2023-01-31T04:08:00.283Z,3.37
2023-01-31T04:10:02.546Z,3.33
2023-01-31T04:12:04.271Z,3.32
2023-01-31T04:14:06.096Z,3.33
2023-01-31T04:16:08.225Z,3.32
2023-01-31T04:18:09.723Z,3.29
2023-01-31T04:20:13.090Z,3.29
2023-01-31T04:22:14.605Z,3.29
2023-01-31T04:24:16.092Z,3.29
2023-01-31T04:26:17.685Z,3.27
2023-01-31T04:28:19.187Z,3.29
2023-01-31T04:30:20.661Z,3.29
2023-01-31T04:32:22.119Z,3.29
2023-01-31T04:34:23.630Z,3.29
2023-01-31T04:36:25.745Z,3.27
2023-01-31T04:38:27.298Z,3.27
2023-01-31T04:40:28.764Z,3.27
2023-01-31T04:42:30.249Z,3.26
2023-01-31T04:44:31.935Z,3.29
2023-01-31T04:46:33.521Z,3.29
2023-01-31T04:48:35.331Z,3.32
2023-01-31T04:50:36.820Z,3.34
2023-01-31T04:52:38.503Z,3.36
2023-01-31T04:54:40.061Z,3.37
2023-01-31T04:56:41.530Z,3.40
2023-01-31T04:58:43.517Z,3.40
2023-01-31T05:00:45.139Z,3.40
2023-01-31T05:02:46.812Z,3.41
2023-01-31T05:04:48.393Z,3.43
2023-01-31T05:06:50.025Z,3.44
2023-01-31T05:08:54.366Z,3.45
2023-01-31T05:11:02.308Z,3.46
2023-01-31T05:13:05.007Z,3.47
2023-01-31T05:15:11.609Z,3.47
2023-01-31T05:17:13.212Z,3.46
2023-01-31T05:19:16.161Z,3.49
2023-01-31T05:21:17.782Z,3.47
2023-01-31T05:23:19.787Z,3.47
2023-01-31T05:25:21.589Z,3.50
2023-01-31T05:27:23.359Z,3.50
2023-01-31T05:29:29.505Z,3.54
2023-01-31T05:31:31.548Z,3.56
2023-01-31T05:33:33.522Z,3.59
2023-01-31T05:35:35.963Z,3.62
2023-01-31T05:37:37.510Z,3.64
2023-01-31T05:39:39.159Z,3.65
2023-01-31T05:41:40.621Z,3.66
2023-01-31T05:43:42.098Z,3.68
2023-01-31T05:45:43.603Z,3.69
2023-01-31T05:47:47.198Z,3.70
2023-01-31T05:49:48.678Z,3.73
2023-01-31T05:51:50.191Z,3.75
2023-01-31T05:53:52.002Z,3.77
2023-01-31T05:55:54.196Z,3.79
2023-01-31T05:57:56.357Z,3.82
2023-01-31T05:59:57.812Z,3.84
2023-01-31T06:01:59.804Z,3.88
2023-01-31T06:04:01.960Z,3.89
2023-01-31T06:06:05.168Z,3.91
2023-01-31T06:08:07.123Z,3.93
2023-01-31T06:10:10.983Z,3.97
2023-01-31T06:12:16.814Z,4.00
2023-01-31T06:14:18.310Z,4.00
2023-01-31T06:16:19.904Z,4.02
2023-01-31T06:18:21.409Z,4.01
2023-01-31T06:20:22.940Z,4.02
2023-01-31T06:22:24.527Z,4.03
2023-01-31T06:24:25.972Z,4.08
2023-01-31T06:26:27.697Z,4.07
2023-01-31T06:28:29.261Z,4.08
2023-01-31T06:30:30.926Z,4.08
2023-01-31T06:32:32.937Z,4.10
2023-01-31T06:34:34.489Z,4.09
2023-01-31T06:36:35.960Z,4.12
2023-01-31T06:38:37.439Z,4.16
2023-01-31T06:40:38.932Z,4.18
2023-01-31T06:42:40.393Z,4.20
2023-01-31T06:44:41.870Z,4.20
2023-01-31T06:46:43.352Z,4.22
2023-01-31T06:48:44.829Z,4.21
2023-01-31T06:50:46.745Z,4.22
2023-01-31T06:52:48.238Z,4.22
2023-01-31T06:54:49.863Z,4.22
2023-01-31T06:56:51.450Z,4.22
2023-01-31T06:58:52.880Z,4.23
2023-01-31T07:00:54.819Z,4.26
2023-01-31T07:02:56.887Z,4.26
2023-01-31T07:04:58.432Z,4.25
2023-01-31T07:06:59.885Z,4.25
2023-01-31T07:09:01.383Z,4.28
2023-01-31T07:11:03.855Z,4.29
2023-01-31T07:13:05.297Z,4.28
2023-01-31T07:15:07.438Z,4.31
2023-01-31T07:17:09.002Z,4.29
2023-01-31T07:19:10.508Z,4.29
2023-01-31T07:21:11.969Z,4.33
2023-01-31T07:23:13.436Z,4.34
2023-01-31T07:25:14.956Z,4.34
2023-01-31T07:27:16.662Z,4.34
2023-01-31T07:29:18.117Z,4.35
2023-01-31T07:31:20.876Z,4.37
2023-01-31T07:33:22.395Z,4.39
2023-01-31T07:35:24.133Z,4.41
2023-01-31T07:37:25.627Z,4.43
2023-01-31T07:39:27.852Z,4.45
2023-01-31T07:41:30.012Z,4.46
2023-01-31T07:43:32.634Z,4.47
2023-01-31T07:45:34.483Z,4.49
2023-01-31T07:47:36.187Z,4.50
2023-01-31T07:49:37.708Z,4.52
2023-01-31T07:51:39.271Z,4.53
2023-01-31T07:53:42.278Z,4.53
2023-01-31T07:55:47.649Z,4.53
2023-01-31T07:57:49.378Z,4.55
2023-01-31T07:59:50.958Z,4.56
2023-01-31T08:02:10.844Z,4.59
2023-01-31T08:04:21.471Z,4.62
2023-01-31T08:06:23.782Z,4.66
2023-01-31T08:08:25.230Z,4.66
2023-01-31T08:10:26.678Z,4.67
2023-01-31T08:12:29.298Z,4.69
2023-01-31T08:14:31.361Z,4.72
2023-01-31T08:16:33.157Z,4.77
2023-01-31T08:18:34.990Z,4.80
2023-01-31T08:20:39.411Z,4.82
2023-01-31T08:22:40.886Z,4.83
2023-01-31T08:24:42.407Z,4.84
2023-01-31T08:26:44.488Z,4.86
2023-01-31T08:28:47.222Z,4.87
2023-01-31T08:31:02.801Z,4.87
2023-01-31T08:33:11.216Z,4.86
2023-01-31T08:35:12.712Z,4.86
2023-01-31T08:37:15.773Z,4.87
2023-01-31T08:39:18.139Z,4.88
2023-01-31T08:41:22.496Z,4.91
2023-01-31T08:43:23.939Z,4.94
2023-01-31T08:45:25.431Z,4.95
2023-01-31T08:47:26.895Z,4.94
2023-01-31T08:49:29.079Z,4.97
2023-01-31T08:51:31.477Z,5.00
2023-01-31T08:53:34.011Z,5.01
2023-01-31T08:55:37.037Z,5.03
2023-01-31T08:57:45.868Z,5.06
2023-01-31T08:59:58.388Z,5.09
2023-01-31T09:01:59.865Z,5.10
2023-01-31T09:04:01.407Z,5.12
2023-01-31T09:06:06.002Z,5.13
2023-01-31T09:08:07.453Z,5.16
2023-01-31T09:10:09.583Z,5.16
2023-01-31T09:12:11.041Z,5.17
2023-01-31T09:14:12.700Z,5.18
2023-01-31T09:16:15.335Z,5.17
2023-01-31T09:18:16.794Z,5.21
2023-01-31T09:20:19.018Z,5.21
2023-01-31T09:22:20.683Z,5.21
2023-01-31T09:24:22.148Z,5.24
2023-01-31T09:26:23.847Z,5.26
2023-01-31T09:28:25.678Z,5.25
2023-01-31T09:30:27.177Z,5.26
2023-01-31T09:32:30.138Z,5.27
2023-01-31T09:34:32.116Z,5.29
2023-01-31T09:36:33.659Z,5.30
2023-01-31T09:38:35.896Z,5.29
2023-01-31T09:40:40.627Z,5.29
2023-01-31T09:42:45.489Z,5.30
2023-01-31T09:44:58.500Z,5.28
2023-01-31T09:47:24.649Z,5.28
2023-01-31T09:49:31.954Z,5.28
2023-01-31T09:51:39.339Z,5.29
2023-01-31T09:53:42.280Z,5.30
2023-01-31T09:56:02.712Z,5.29
2023-01-31T09:58:16.637Z,5.30
2023-01-31T10:00:21.082Z,5.30
2023-01-31T10:02:45.278Z,5.31
2023-01-31T10:05:05.558Z,5.31
2023-01-31T10:07:15.195Z,5.32
2023-01-31T10:09:42.738Z,5.32
2023-01-31T10:11:48.807Z,5.33
2023-01-31T10:13:57.722Z,5.35
2023-01-31T10:16:30.423Z,5.34
2023-01-31T10:18:42.260Z,5.35
2023-01-31T10:20:52.254Z,5.36
2023-01-31T10:23:04.554Z,5.38
2023-01-31T10:25:28.374Z,5.38
2023-01-31T10:27:46.087Z,5.40
2023-01-31T10:29:54.064Z,5.39
2023-01-31T10:31:57.432Z,5.39
2023-01-31T10:34:01.786Z,5.40
2023-01-31T10:36:11.463Z,5.41
2023-01-31T10:38:23.469Z,5.40
2023-01-31T10:40:46.080Z,5.39
2023-01-31T10:42:57.763Z,5.40
2023-01-31T10:44:59.278Z,5.41
2023-01-31T10:47:00.861Z,5.44
2023-01-31T10:49:03.468Z,5.44
2023-01-31T10:51:20.611Z,5.47
2023-01-31T10:53:52.198Z,5.48
2023-01-31T10:56:10.756Z,5.50
2023-01-31T10:58:19.497Z,5.51
2023-01-31T11:00:23.489Z,5.51
2023-01-31T11:02:29.891Z,5.52
2023-01-31T11:04:38.744Z,5.53
2023-01-31T11:06:40.091Z,5.54
2023-01-31T11:08:50.516Z,5.57
2023-01-31T11:10:54.231Z,5.60
2023-01-31T11:13:01.856Z,5.62
2023-01-31T11:15:06.812Z,5.63
2023-01-31T11:17:21.507Z,5.66
2023-01-31T11:19:27.453Z,5.68
2023-01-31T11:21:35.832Z,5.70
2023-01-31T11:23:38.016Z,5.68
2023-01-31T11:25:39.530Z,5.68
2023-01-31T11:27:43.649Z,5.68
2023-01-31T11:29:50.232Z,5.71
2023-01-31T11:31:53.181Z,5.71
2023-01-31T11:34:01.964Z,5.72
2023-01-31T11:36:14.061Z,5.72
2023-01-31T11:38:22.342Z,5.74
2023-01-31T11:40:38.450Z,5.74
2023-01-31T11:42:55.111Z,5.75
2023-01-31T11:45:18.490Z,5.76
2023-01-31T11:47:28.702Z,5.79
2023-01-31T11:49:35.379Z,5.82
2023-01-31T11:51:36.979Z,5.80
2023-01-31T11:53:43.960Z,5.81
2023-01-31T11:55:48.079Z,5.83
2023-01-31T11:57:56.647Z,5.85
2023-01-31T12:00:00.758Z,5.85
2023-01-31T12:02:02.446Z,5.85
2023-01-31T12:04:05.737Z,5.87
2023-01-31T12:06:09.988Z,5.87
2023-01-31T12:08:43.917Z,5.90
2023-01-31T12:10:48.757Z,5.94
2023-01-31T12:12:52.309Z,5.97
2023-01-31T12:14:59.332Z,5.97
2023-01-31T12:17:01.382Z,5.97
2023-01-31T12:19:02.843Z,5.97
2023-01-31T12:21:22.958Z,5.98
2023-01-31T12:23:35.131Z,5.99
2023-01-31T12:26:08.855Z,6.02
2023-01-31T12:28:13.064Z,6.01
2023-01-31T12:30:35.788Z,6.05
2023-01-31T12:33:11.190Z,6.07
2023-01-31T12:35:37.488Z,6.07
2023-01-31T12:37:49.932Z,6.10
2023-01-31T12:40:23.821Z,6.13
2023-01-31T12:42:37.162Z,6.18
2023-01-31T12:44:50.751Z,6.20
2023-01-31T12:47:09.957Z,6.25
2023-01-31T12:49:12.621Z,6.30
2023-01-31T12:51:32.732Z,6.31
2023-01-31T12:53:50.881Z,6.35
2023-01-31T12:56:41.542Z,6.36
2023-01-31T12:59:16.305Z,6.37
2023-01-31T13:01:32.498Z,6.37
2023-01-31T13:03:46.440Z,6.38
2023-01-31T13:06:10.174Z,6.38
2023-01-31T13:08:24.815Z,6.38
2023-01-31T13:10:43.984Z,6.41
2023-01-31T13:12:46.688Z,6.39
2023-01-31T13:15:29.329Z,6.39
2023-01-31T13:17:33.999Z,6.39
2023-01-31T13:19:44.393Z,6.41
2023-01-31T13:21:50.862Z,6.42
2023-01-31T13:23:55.869Z,6.43
2023-01-31T13:26:09.589Z,6.47
2023-01-31T13:28:28.494Z,6.48
2023-01-31T13:30:48.996Z,6.49
2023-01-31T13:32:55.273Z,6.49
2023-01-31T13:35:26.459Z,6.50
2023-01-31T13:37:30.432Z,6.51
2023-01-31T13:39:37.668Z,6.52
2023-01-31T13:41:40.005Z,6.53
2023-01-31T13:43:41.515Z,6.53
2023-01-31T13:45:48.352Z,6.54
2023-01-31T13:47:56.168Z,6.55
2023-01-31T13:50:17.548Z,6.59
2023-01-31T13:52:21.544Z,6.59
2023-01-31T13:54:57.639Z,6.60
2023-01-31T13:57:01.315Z,6.61
2023-01-31T13:59:06.995Z,6.65
2023-01-31T14:01:17.651Z,6.68
2023-01-31T14:03:20.747Z,6.72
2023-01-31T14:05:52.692Z,6.72
2023-01-31T14:08:33.086Z,6.73
2023-01-31T14:10:42.462Z,6.74
2023-01-31T14:12:43.945Z,6.75
2023-01-31T14:14:53.223Z,6.78
2023-01-31T14:16:54.674Z,6.78
2023-01-31T14:18:56.205Z,6.79
2023-01-31T14:20:57.655Z,6.79
2023-01-31T14:23:32.409Z,6.80
2023-01-31T14:25:42.073Z,6.83
2023-01-31T14:28:02.677Z,6.86
2023-01-31T14:30:04.695Z,6.87
2023-01-31T14:32:22.257Z,6.90
2023-01-31T14:34:26.611Z,6.90
2023-01-31T14:36:34.276Z,6.92
2023-01-31T14:38:45.252Z,6.96
2023-01-31T14:41:09.856Z,6.98
2023-01-31T14:43:26.616Z,7.01
2023-01-31T14:46:18.729Z,7.05
2023-01-31T14:48:24.645Z,7.08
2023-01-31T14:50:38.521Z,7.12
2023-01-31T14:52:52.914Z,7.13
2023-01-31T14:55:22.051Z,7.14
2023-01-31T14:57:31.198Z,7.15
2023-01-31T14:59:36.373Z,7.19
2023-01-31T15:01:38.337Z,7.18
2023-01-31T15:03:52.491Z,7.21
2023-01-31T15:06:11.664Z,7.25
2023-01-31T15:08:13.071Z,7.27
2023-01-31T15:10:53.335Z,7.29
2023-01-31T15:13:01.499Z,7.30
2023-01-31T15:15:05.480Z,7.32
2023-01-31T15:17:31.572Z,7.33
2023-01-31T15:19:44.261Z,7.35
2023-01-31T15:21:50.479Z,7.39
2023-01-31T15:23:53.945Z,7.40
2023-01-31T15:25:58.916Z,7.44
2023-01-31T15:28:02.563Z,7.46
2023-01-31T15:30:19.311Z,7.48
2023-01-31T15:32:45.747Z,7.49
2023-01-31T15:34:55.851Z,7.49
2023-01-31T15:37:16.569Z,7.52
2023-01-31T15:39:32.533Z,7.53
2023-01-31T15:41:42.349Z,7.53
2023-01-31T15:43:44.918Z,7.50
2023-01-31T15:45:51.526Z,7.52
2023-01-31T15:48:00.153Z,7.55
2023-01-31T15:50:01.646Z,7.56
2023-01-31T15:52:04.315Z,7.58
2023-01-31T15:54:07.093Z,7.58
2023-01-31T15:56:22.104Z,7.58
2023-01-31T15:58:25.789Z,7.57
2023-01-31T16:00:30.262Z,7.56
2023-01-31T16:02:37.984Z,7.57
2023-01-31T16:04:40.443Z,7.59
2023-01-31T16:06:41.976Z,7.58
2023-01-31T16:08:43.420Z,7.56
2023-01-31T16:10:46.600Z,7.54
2023-01-31T16:12:50.865Z,7.51
2023-01-31T16:14:59.229Z,7.45
2023-01-31T16:17:01.287Z,7.43
2023-01-31T16:19:04.256Z,7.42
2023-01-31T16:21:24.215Z,7.42
2023-01-31T16:23:34.897Z,7.43
2023-01-31T16:25:37.063Z,7.41
2023-01-31T16:27:42.794Z,7.38
2023-01-31T16:29:56.925Z,7.38
2023-01-31T16:31:59.520Z,7.37
2023-01-31T16:34:20.799Z,7.34
2023-01-31T16:36:51.427Z,7.32
2023-01-31T16:39:00.764Z,7.30
2023-01-31T16:41:07.956Z,7.30
2023-01-31T16:43:17.774Z,7.30
2023-01-31T16:45:34.036Z,7.31
2023-01-31T16:47:51.212Z,7.32
2023-01-31T16:50:15.146Z,7.30
2023-01-31T16:52:29.626Z,7.27
2023-01-31T16:54:31.331Z,7.27
2023-01-31T16:56:32.771Z,7.26
2023-01-31T16:58:43.064Z,7.27
2023-01-31T17:00:44.645Z,7.29
2023-01-31T17:02:46.126Z,7.30
2023-01-31T17:04:50.182Z,7.30
2023-01-31T17:07:03.200Z,7.31
2023-01-31T17:09:07.161Z,7.31
2023-01-31T17:11:16.429Z,7.28
2023-01-31T17:13:25.297Z,7.22
2023-01-31T17:15:26.948Z,7.21
2023-01-31T17:17:34.641Z,7.21
2023-01-31T17:19:36.146Z,7.23
2023-01-31T17:21:41.061Z,7.24
2023-01-31T17:23:42.796Z,7.24
2023-01-31T17:25:45.220Z,7.25
2023-01-31T17:27:47.467Z,7.21
2023-01-31T17:29:50.014Z,7.24
2023-01-31T17:31:52.146Z,7.22
2023-01-31T17:33:53.804Z,7.18
2023-01-31T17:35:55.339Z,7.17
2023-01-31T17:37:57.623Z,7.16
2023-01-31T17:39:59.525Z,7.12
2023-01-31T17:42:01.280Z,7.13
2023-01-31T17:44:03.038Z,7.14
2023-01-31T17:46:04.624Z,7.14
2023-01-31T17:48:07.794Z,7.14
2023-01-31T17:50:17.033Z,7.10
2023-01-31T17:52:18.610Z,7.06
2023-01-31T17:54:20.110Z,7.07
2023-01-31T17:56:21.839Z,7.03
2023-01-31T17:58:24.602Z,6.99
2023-01-31T18:00:26.051Z,6.97
2023-01-31T18:02:27.619Z,6.92
2023-01-31T18:04:29.312Z,6.88
2023-01-31T18:06:30.935Z,6.86
2023-01-31T18:08:32.815Z,6.83
2023-01-31T18:10:34.480Z,6.82
2023-01-31T18:12:36.607Z,6.80
2023-01-31T18:14:38.108Z,6.78
2023-01-31T18:16:39.691Z,6.75
2023-01-31T18:18:43.752Z,6.71
2023-01-31T18:20:48.186Z,6.70
2023-01-31T18:22:49.646Z,6.68
2023-01-31T18:24:51.215Z,6.64
2023-01-31T18:26:53.027Z,6.64
2023-01-31T18:28:57.256Z,6.64
2023-01-31T18:31:08.043Z,6.62
2023-01-31T18:33:09.733Z,6.57
2023-01-31T18:35:11.257Z,6.57
2023-01-31T18:37:19.303Z,6.56
2023-01-31T18:39:21.406Z,6.51
2023-01-31T18:41:23.073Z,6.50
2023-01-31T18:43:25.349Z,6.48
2023-01-31T18:45:26.870Z,6.47
2023-01-31T18:47:28.330Z,6.49
2023-01-31T18:49:30.048Z,6.49
2023-01-31T18:51:31.585Z,6.46
2023-01-31T18:53:38.515Z,6.46
2023-01-31T18:55:40.002Z,6.43
2023-01-31T18:57:41.531Z,6.38
2023-01-31T18:59:43.071Z,6.38
2023-01-31T19:01:44.714Z,6.41
2023-01-31T19:03:50.014Z,6.41
2023-01-31T19:05:51.507Z,6.37
2023-01-31T19:07:53.008Z,6.35
2023-01-31T19:09:54.561Z,6.31
2023-01-31T19:11:56.049Z,6.29
2023-01-31T19:13:58.505Z,6.30
2023-01-31T19:16:05.544Z,6.28
2023-01-31T19:18:07.189Z,6.24
2023-01-31T19:20:09.765Z,6.26
2023-01-31T19:22:11.236Z,6.27
2023-01-31T19:24:14.220Z,6.25
2023-01-31T19:26:17.331Z,6.26
2023-01-31T19:28:22.821Z,6.26
2023-01-31T19:30:24.349Z,6.25
2023-01-31T19:32:25.871Z,6.25
2023-01-31T19:34:27.343Z,6.26
2023-01-31T19:36:35.275Z,6.24
2023-01-31T19:38:36.949Z,6.25
2023-01-31T19:40:38.459Z,6.23
2023-01-31T19:42:42.281Z,6.23
2023-01-31T19:44:43.856Z,6.25
2023-01-31T19:46:46.346Z,6.24
2023-01-31T19:48:48.060Z,6.21
2023-01-31T19:50:49.535Z,6.18
2023-01-31T19:52:51.071Z,6.13
2023-01-31T19:54:52.646Z,6.14
2023-01-31T19:56:54.136Z,6.13
2023-01-31T19:58:55.723Z,6.11
2023-01-31T20:01:11.771Z,6.10
2023-01-31T20:03:13.305Z,6.09
2023-01-31T20:05:14.999Z,6.07
2023-01-31T20:07:16.513Z,6.08
2023-01-31T20:09:20.162Z,6.06
2023-01-31T20:11:23.440Z,6.03
2023-01-31T20:13:25.196Z,6.06
2023-01-31T20:15:27.355Z,6.04
2023-01-31T20:17:28.872Z,6.05
2023-01-31T20:19:30.326Z,6.05
2023-01-31T20:21:31.893Z,6.03
2023-01-31T20:23:33.822Z,6.02
2023-01-31T20:25:35.341Z,5.99
2023-01-31T20:27:36.889Z,6.01
2023-01-31T20:29:38.393Z,6.01
2023-01-31T20:31:39.956Z,6.03
2023-01-31T20:33:41.653Z,6.03
2023-01-31T20:35:43.981Z,6.03
2023-01-31T20:37:45.442Z,6.03
2023-01-31T20:39:46.892Z,6.05
2023-01-31T20:41:48.379Z,6.04
2023-01-31T20:43:50.648Z,5.99
2023-01-31T20:45:52.387Z,5.96
2023-01-31T20:47:58.285Z,5.97
2023-01-31T20:49:59.813Z,5.97
2023-01-31T20:52:02.431Z,5.94
2023-01-31T20:54:05.978Z,5.90
2023-01-31T20:56:09.946Z,5.92
2023-01-31T20:58:11.433Z,5.94
2023-01-31T21:00:13.316Z,5.93
2023-01-31T21:02:14.840Z,5.95
2023-01-31T21:04:16.388Z,5.94
2023-01-31T21:06:17.899Z,5.90
2023-01-31T21:08:20.146Z,5.89
2023-01-31T21:10:21.861Z,5.91
2023-01-31T21:12:23.488Z,5.91
2023-01-31T21:14:25.076Z,5.94
2023-01-31T21:16:26.557Z,5.96
2023-01-31T21:18:30.663Z,5.92
2023-01-31T21:20:32.129Z,5.89
2023-01-31T21:22:34.348Z,5.87
2023-01-31T21:24:36.786Z,5.88
2023-01-31T21:26:38.263Z,5.89
2023-01-31T21:28:40.111Z,5.89
2023-01-31T21:30:42.227Z,5.87
2023-01-31T21:32:43.854Z,5.86
2023-01-31T21:34:45.387Z,5.84
2023-01-31T21:36:46.900Z,5.84
2023-01-31T21:38:48.666Z,5.85
2023-01-31T21:41:10.716Z,5.82
2023-01-31T21:43:12.171Z,5.82
2023-01-31T21:45:13.661Z,5.80
2023-01-31T21:47:15.658Z,5.83
2023-01-31T21:49:17.128Z,5.86
2023-01-31T21:51:20.213Z,5.84
2023-01-31T21:53:22.276Z,5.88
2023-01-31T21:55:23.788Z,5.87
2023-01-31T21:57:25.247Z,5.86
2023-01-31T21:59:26.791Z,5.82
2023-01-31T22:01:31.154Z,5.82
2023-01-31T22:03:33.840Z,5.82
2023-01-31T22:05:35.322Z,5.84
2023-01-31T22:07:36.822Z,5.84
2023-01-31T22:09:38.309Z,5.85
2023-01-31T22:11:40.350Z,5.82
2023-01-31T22:13:46.795Z,5.84
2023-01-31T22:15:48.287Z,5.83
2023-01-31T22:17:49.799Z,5.82
2023-01-31T22:19:51.257Z,5.83
2023-01-31T22:21:52.830Z,5.80
2023-01-31T22:23:56.798Z,5.80
2023-01-31T22:26:02.881Z,5.81
2023-01-31T22:28:04.380Z,5.78
2023-01-31T22:30:15.861Z,5.76
2023-01-31T22:32:18.067Z,5.74
2023-01-31T22:34:19.523Z,5.74
2023-01-31T22:36:21.731Z,5.72
2023-01-31T22:38:24.177Z,5.70
2023-01-31T22:40:25.671Z,5.69
2023-01-31T22:42:27.130Z,5.65
2023-01-31T22:44:28.610Z,5.61
2023-01-31T22:46:30.237Z,5.61
2023-01-31T22:48:32.290Z,5.60
2023-01-31T22:50:33.769Z,5.57
2023-01-31T22:52:35.211Z,5.55
2023-01-31T22:54:36.695Z,5.55
2023-01-31T22:56:38.225Z,5.53
2023-01-31T22:58:40.154Z,5.53
2023-01-31T23:00:41.888Z,5.50
2023-01-31T23:02:43.349Z,5.50
2023-01-31T23:04:44.880Z,5.51
2023-01-31T23:06:46.365Z,5.51
2023-01-31T23:08:47.953Z,5.52
2023-01-31T23:10:49.456Z,5.51
2023-01-31T23:12:51.016Z,5.49
2023-01-31T23:14:52.484Z,5.48
2023-01-31T23:17:12.245Z,5.46
2023-01-31T23:19:15.358Z,5.45
2023-01-31T23:21:18.678Z,5.46
2023-01-31T23:23:20.929Z,5.47
2023-01-31T23:25:25.627Z,5.46
2023-01-31T23:27:27.601Z,5.47
2023-01-31T23:29:29.145Z,5.45
2023-01-31T23:31:32.533Z,5.47
2023-01-31T23:33:34.099Z,5.47
2023-01-31T23:35:35.589Z,5.49
2023-01-31T23:37:37.150Z,5.51
2023-01-31T23:39:38.621Z,5.51
2023-01-31T23:41:40.148Z,5.53
2023-01-31T23:43:41.642Z,5.53
2023-01-31T23:45:43.122Z,5.53
2023-01-31T23:47:44.700Z,5.55
2023-01-31T23:49:46.337Z,5.56
2023-01-31T23:51:47.822Z,5.58
2023-01-31T23:53:49.323Z,5.57
2023-01-31T23:55:50.798Z,5.55
2023-01-31T23:57:52.369Z,5.57
2023-01-31T23:59:53.906Z,5.57
